createdAt,value
2022-09-24T00:01:30.835Z,15.04
2022-09-24T00:04:03.257Z,15.05
2022-09-24T00:06:31.599Z,15.05
2022-09-24T00:08:59.378Z,15.02
2022-09-24T00:11:27.882Z,15.00
2022-09-24T00:13:56.428Z,15.03
2022-09-24T00:16:24.636Z,15.05
2022-09-24T00:18:52.814Z,15.07
2022-09-24T00:21:25.849Z,15.08
2022-09-24T00:23:55.577Z,15.10
2022-09-24T00:26:42.249Z,15.09
2022-09-24T00:29:10.577Z,15.08
2022-09-24T00:31:38.351Z,15.08
2022-09-24T00:34:06.333Z,14.98
2022-09-24T00:36:34.163Z,14.97
2022-09-24T00:39:01.893Z,14.96
2022-09-24T00:41:34.493Z,14.98
2022-09-24T00:44:02.450Z,15.00
2022-09-24T00:46:34.151Z,14.97
2022-09-24T00:49:20.249Z,14.94
2022-09-24T00:51:51.590Z,14.94
2022-09-24T00:54:22.249Z,14.95
2022-09-24T00:56:50.482Z,14.91
2022-09-24T00:59:19.124Z,14.88
2022-09-24T01:01:47.568Z,14.89
2022-09-24T01:04:15.774Z,14.90
2022-09-24T01:06:43.560Z,14.89
2022-09-24T01:09:11.284Z,14.89
2022-09-24T01:11:53.565Z,14.88
2022-09-24T01:14:34.222Z,14.89
2022-09-24T01:17:24.141Z,14.88
2022-09-24T01:20:22.794Z,14.89
2022-09-24T01:23:10.696Z,14.87
2022-09-24T01:26:21.000Z,14.85
2022-09-24T01:29:07.308Z,14.81
2022-09-24T01:31:42.911Z,14.80
2022-09-24T01:34:10.692Z,14.81
2022-09-24T01:36:38.604Z,14.81
2022-09-24T01:39:06.521Z,14.85
2022-09-24T01:41:35.355Z,14.81
2022-09-24T01:44:06.633Z,14.78
2022-09-24T01:46:34.940Z,14.76
2022-09-24T01:49:02.725Z,14.69
2022-09-24T01:51:34.395Z,14.66
2022-09-24T01:54:04.795Z,14.65
2022-09-24T01:56:42.754Z,14.65
2022-09-24T01:59:32.367Z,14.66
2022-09-24T02:02:03.027Z,14.67
2022-09-24T02:04:35.027Z,14.65
2022-09-24T02:07:04.673Z,14.62
2022-09-24T02:09:36.257Z,14.61
2022-09-24T02:12:14.605Z,14.63
2022-09-24T02:14:46.252Z,14.63
2022-09-24T02:17:13.972Z,14.64
2022-09-24T02:19:41.967Z,14.62
2022-09-24T02:22:10.505Z,14.62
2022-09-24T02:24:46.631Z,14.61
2022-09-24T02:27:14.350Z,14.63
2022-09-24T02:29:42.102Z,14.63
2022-09-24T02:32:10.512Z,14.59
2022-09-24T02:34:41.167Z,14.57
2022-09-24T02:37:11.726Z,14.58
2022-09-24T02:39:39.459Z,14.60
2022-09-24T02:42:07.324Z,14.61
2022-09-24T02:44:35.192Z,14.63
2022-09-24T02:47:02.901Z,14.59
2022-09-24T02:49:30.660Z,14.56
2022-09-24T02:51:58.408Z,14.52
2022-09-24T02:54:28.937Z,14.53
2022-09-24T02:56:56.662Z,14.48
2022-09-24T02:59:24.353Z,14.48
2022-09-24T03:01:52.255Z,14.47
2022-09-24T03:04:20.136Z,14.51
2022-09-24T03:06:47.884Z,14.50
2022-09-24T03:09:15.748Z,14.47
2022-09-24T03:11:43.482Z,14.46
2022-09-24T03:14:11.279Z,14.46
2022-09-24T03:16:39.079Z,14.47
2022-09-24T03:19:07.519Z,14.43
2022-09-24T03:21:35.312Z,14.45
2022-09-24T03:24:03.271Z,14.43
2022-09-24T03:26:31.078Z,14.45
2022-09-24T03:28:58.802Z,14.40
2022-09-24T03:31:26.619Z,14.41
2022-09-24T03:33:54.335Z,14.44
2022-09-24T03:36:26.077Z,14.46
2022-09-24T03:38:57.396Z,14.46
2022-09-24T03:41:26.189Z,14.46
2022-09-24T03:43:54.159Z,14.45
2022-09-24T03:46:21.932Z,14.43
2022-09-24T03:48:50.292Z,14.43
2022-09-24T03:53:54.864Z,14.43
2022-09-24T03:56:35.189Z,14.43
2022-09-24T03:59:08.183Z,14.42
2022-09-24T04:02:00.476Z,14.42
2022-09-24T04:04:55.567Z,14.39
2022-09-24T04:07:35.871Z,14.33
2022-09-24T04:10:18.156Z,14.32
2022-09-24T04:15:35.181Z,14.41
2022-09-24T04:18:03.215Z,14.29
2022-09-24T04:20:36.199Z,14.27
2022-09-24T04:23:29.535Z,14.27
2022-09-24T04:25:57.400Z,14.25
2022-09-24T04:28:43.099Z,14.26
2022-09-24T04:31:10.980Z,14.26
2022-09-24T04:33:45.251Z,14.31
2022-09-24T04:36:25.354Z,14.31
2022-09-24T04:38:58.740Z,14.30
2022-09-24T04:41:31.892Z,14.30
2022-09-24T04:44:08.378Z,14.30
2022-09-24T04:46:44.044Z,14.31
2022-09-24T04:49:16.482Z,14.25
2022-09-24T04:51:52.030Z,14.25
2022-09-24T04:54:54.338Z,14.22
2022-09-24T04:57:27.896Z,14.24
2022-09-24T04:59:59.169Z,14.18
2022-09-24T05:02:27.202Z,14.17
2022-09-24T05:05:00.143Z,14.12
2022-09-24T05:07:32.964Z,14.10
2022-09-24T05:10:08.743Z,14.11
2022-09-24T05:12:41.953Z,14.14
2022-09-24T05:15:11.131Z,14.15
2022-09-24T05:17:46.262Z,14.15
2022-09-24T05:20:20.351Z,14.17
2022-09-24T05:22:53.926Z,14.16
2022-09-24T05:25:35.607Z,14.16
2022-09-24T05:28:09.021Z,14.18
2022-09-24T05:30:44.089Z,14.17
2022-09-24T05:33:24.052Z,14.19
2022-09-24T05:35:59.123Z,14.18
2022-09-24T05:38:41.704Z,14.19
2022-09-24T05:41:22.000Z,14.20
2022-09-24T05:43:52.057Z,14.19
2022-09-24T05:46:45.214Z,14.20
2022-09-24T05:49:18.687Z,14.22
2022-09-24T05:52:19.086Z,14.21
2022-09-24T05:54:59.132Z,14.20
2022-09-24T05:57:31.921Z,14.19
2022-09-24T06:00:04.434Z,14.19
2022-09-24T06:03:06.465Z,14.19
2022-09-24T06:05:50.219Z,14.17
2022-09-24T06:08:30.264Z,14.16
2022-09-24T06:11:14.268Z,14.16
2022-09-24T06:13:52.351Z,14.15
2022-09-24T06:16:21.610Z,14.14
2022-09-24T06:18:59.145Z,14.12
2022-09-24T06:21:27.818Z,14.08
2022-09-24T06:23:58.527Z,14.09
2022-09-24T06:26:38.936Z,14.08
2022-09-24T06:29:18.911Z,14.07
2022-09-24T06:31:57.576Z,14.06
2022-09-24T06:34:30.389Z,14.06
2022-09-24T06:37:33.173Z,14.08
2022-09-24T06:40:06.725Z,14.08
2022-09-24T06:42:34.594Z,14.08
2022-09-24T06:45:14.336Z,14.07
2022-09-24T06:47:52.980Z,14.07
2022-09-24T06:50:29.825Z,14.10
2022-09-24T06:53:04.331Z,14.11
2022-09-24T06:55:37.118Z,14.12
2022-09-24T06:58:15.025Z,14.12
2022-09-24T07:00:52.401Z,14.13
2022-09-24T07:03:25.897Z,14.13
2022-09-24T07:05:53.672Z,14.12
2022-09-24T07:08:33.071Z,14.13
2022-09-24T07:11:17.947Z,14.15
2022-09-24T07:13:58.089Z,14.18
2022-09-24T07:16:30.182Z,14.17
2022-09-24T07:19:03.218Z,14.17
2022-09-24T07:21:42.048Z,14.19
2022-09-24T07:24:14.895Z,14.23
2022-09-24T07:26:47.853Z,14.24
2022-09-24T07:29:30.401Z,14.30
2022-09-24T07:32:10.518Z,14.33
2022-09-24T07:34:51.989Z,14.35
2022-09-24T07:37:22.874Z,14.36
2022-09-24T07:39:53.409Z,14.40
2022-09-24T07:42:27.209Z,14.39
2022-09-24T07:45:10.911Z,14.41
2022-09-24T07:47:38.615Z,14.43
2022-09-24T07:50:19.076Z,14.46
2022-09-24T07:52:53.410Z,14.49
2022-09-24T07:55:46.207Z,14.52
2022-09-24T07:58:39.269Z,14.53
2022-09-24T08:01:15.559Z,14.50
2022-09-24T08:04:11.708Z,14.48
2022-09-24T08:07:04.760Z,14.48
2022-09-24T08:09:37.511Z,14.49
2022-09-24T08:12:11.144Z,14.49
2022-09-24T08:14:44.481Z,14.53
2022-09-24T08:17:44.051Z,14.51
2022-09-24T08:20:25.431Z,14.52
2022-09-24T08:23:11.752Z,14.51
2022-09-24T08:26:02.178Z,14.50
2022-09-24T08:31:50.022Z,14.55
2022-09-24T08:37:30.298Z,14.49
2022-09-24T08:42:42.464Z,14.51
2022-09-24T08:45:39.342Z,14.54
2022-09-24T08:48:35.116Z,14.58
2022-09-24T08:51:41.606Z,14.66
2022-09-24T08:54:25.311Z,14.80
2022-09-24T08:56:58.504Z,14.80
2022-09-24T08:59:38.888Z,14.81
2022-09-24T09:02:16.664Z,14.81
2022-09-24T09:05:09.299Z,14.80
2022-09-24T09:08:09.679Z,14.77
2022-09-24T09:10:53.735Z,14.77
2022-09-24T09:13:39.444Z,14.79
2022-09-24T09:17:22.968Z,14.78
2022-09-24T09:20:00.330Z,14.83
2022-09-24T09:22:37.332Z,14.83
2022-09-24T09:25:38.095Z,14.86
2022-09-24T09:28:35.310Z,14.86
2022-09-24T09:31:36.969Z,14.84
2022-09-24T09:34:32.730Z,14.84
2022-09-24T09:37:19.927Z,14.86
2022-09-24T09:40:18.691Z,14.88
2022-09-24T09:42:51.279Z,14.92
2022-09-24T09:45:31.437Z,14.96
2022-09-24T09:48:23.777Z,14.97
2022-09-24T09:51:06.347Z,15.03
2022-09-24T09:53:44.995Z,15.03
2022-09-24T09:56:15.858Z,15.07
2022-09-24T09:59:12.721Z,15.10
2022-09-24T10:01:47.826Z,15.11
2022-09-24T10:04:42.216Z,15.10
2022-09-24T10:07:16.512Z,15.11
2022-09-24T10:09:49.144Z,15.13
2022-09-24T10:12:25.716Z,15.14
2022-09-24T10:15:01.849Z,15.19
2022-09-24T10:17:36.506Z,15.20
2022-09-24T10:20:42.270Z,15.20
2022-09-24T10:23:40.345Z,15.25
2022-09-24T10:26:13.990Z,15.28
2022-09-24T10:29:10.380Z,15.26
2022-09-24T10:31:43.217Z,15.29
2022-09-24T10:34:25.756Z,15.34
2022-09-24T10:37:10.931Z,15.33
2022-09-24T10:39:44.461Z,15.34
2022-09-24T10:42:25.518Z,15.35
2022-09-24T10:44:54.726Z,15.33
2022-09-24T10:47:44.710Z,15.30
2022-09-24T10:50:42.929Z,15.26
2022-09-24T10:53:40.659Z,15.28
2022-09-24T10:56:43.725Z,15.21
2022-09-24T10:59:44.481Z,15.26
2022-09-24T11:02:40.795Z,15.30
2022-09-24T11:05:16.727Z,15.20
2022-09-24T11:08:05.697Z,15.24
2022-09-24T11:11:02.644Z,15.28
2022-09-24T11:14:12.954Z,15.34
2022-09-24T11:16:59.809Z,15.34
2022-09-24T11:20:16.728Z,15.34
2022-09-24T11:23:15.598Z,15.24
2022-09-24T11:26:18.770Z,15.24
2022-09-24T11:29:16.502Z,15.22
2022-09-24T11:32:22.545Z,15.20
2022-09-24T11:35:04.454Z,15.24
2022-09-24T11:37:48.565Z,15.32
2022-09-24T11:44:02.268Z,15.38
2022-09-24T11:47:06.130Z,15.40
2022-09-24T11:50:09.484Z,15.40
2022-09-24T11:52:57.730Z,15.45
2022-09-24T11:55:35.476Z,15.43
2022-09-24T11:58:19.518Z,15.46
2022-09-24T12:01:10.789Z,15.46
2022-09-24T12:03:59.999Z,15.46
2022-09-24T12:06:36.903Z,15.48
2022-09-24T12:09:21.022Z,15.48
2022-09-24T12:11:56.267Z,15.51
2022-09-24T12:14:49.270Z,15.56
2022-09-24T12:17:30.117Z,15.60
2022-09-24T12:20:21.375Z,15.54
2022-09-24T12:23:02.070Z,15.51
2022-09-24T12:25:47.429Z,15.56
2022-09-24T12:28:40.274Z,15.59
2022-09-24T12:31:54.481Z,15.68
2022-09-24T12:34:30.865Z,15.71
2022-09-24T12:37:25.728Z,15.75
2022-09-24T12:40:25.400Z,15.81
2022-09-24T12:43:00.836Z,15.89
2022-09-24T12:45:34.613Z,15.96
2022-09-24T12:48:08.074Z,15.93
2022-09-24T12:50:50.111Z,15.90
2022-09-24T12:53:29.197Z,15.97
2022-09-24T12:56:21.949Z,15.90
2022-09-24T12:58:50.577Z,15.90
2022-09-24T13:01:25.509Z,15.97
2022-09-24T13:04:15.245Z,15.99
2022-09-24T13:07:10.976Z,15.97
2022-09-24T13:10:19.442Z,15.99
2022-09-24T13:13:21.373Z,15.98
2022-09-24T13:16:09.577Z,16.00
2022-09-24T13:18:40.544Z,16.03
2022-09-24T13:21:09.355Z,16.05
2022-09-24T13:23:42.086Z,16.05
2022-09-24T13:26:10.437Z,16.03
2022-09-24T13:28:52.386Z,16.06
2022-09-24T13:31:28.380Z,16.06
2022-09-24T13:34:05.849Z,16.03
2022-09-24T13:36:38.451Z,16.03
2022-09-24T13:39:13.098Z,16.02
2022-09-24T13:42:16.694Z,16.00
2022-09-24T13:44:49.462Z,15.97
2022-09-24T13:47:43.630Z,15.97
2022-09-24T13:50:17.860Z,15.96
2022-09-24T13:53:00.283Z,15.91
2022-09-24T13:55:35.780Z,15.91
2022-09-24T13:58:03.581Z,15.88
2022-09-24T14:00:38.388Z,15.90
2022-09-24T14:03:26.872Z,15.87
2022-09-24T14:06:20.204Z,15.87
2022-09-24T14:08:52.954Z,15.82
2022-09-24T14:11:32.079Z,15.83
2022-09-24T14:14:12.679Z,15.78
2022-09-24T14:16:45.500Z,15.77
2022-09-24T14:19:27.222Z,15.75
2022-09-24T14:22:00.895Z,15.68
2022-09-24T14:24:35.002Z,15.68
2022-09-24T14:27:14.696Z,15.63
2022-09-24T14:29:59.168Z,15.54
2022-09-24T14:32:35.351Z,15.45
2022-09-24T14:35:36.326Z,15.46
2022-09-24T14:38:27.035Z,15.48
2022-09-24T14:40:57.832Z,15.51
2022-09-24T14:43:47.270Z,15.59
2022-09-24T14:46:24.006Z,15.61
2022-09-24T14:49:14.909Z,15.62
2022-09-24T14:52:19.706Z,15.60
2022-09-24T14:55:05.732Z,15.60
2022-09-24T14:57:42.252Z,15.53
2022-09-24T15:00:37.021Z,15.52
2022-09-24T15:03:13.594Z,15.48
2022-09-24T15:05:47.253Z,15.48
2022-09-24T15:08:29.098Z,15.49
2022-09-24T15:11:03.691Z,15.51
2022-09-24T15:13:41.221Z,15.58
2022-09-24T15:16:23.227Z,15.65
2022-09-24T15:19:12.343Z,15.74
2022-09-24T15:21:46.273Z,15.78
2022-09-24T15:24:21.471Z,15.78
2022-09-24T15:26:53.972Z,15.77
2022-09-24T15:29:25.165Z,15.76
2022-09-24T15:31:57.647Z,15.74
2022-09-24T15:34:49.037Z,15.74
2022-09-24T15:37:28.274Z,15.72
2022-09-24T15:40:12.796Z,15.67
2022-09-24T15:42:49.028Z,15.65
2022-09-24T15:45:30.667Z,15.63
2022-09-24T15:48:03.308Z,15.63
2022-09-24T15:50:34.178Z,15.61
2022-09-24T15:53:04.777Z,15.61
2022-09-24T15:55:40.499Z,15.62
2022-09-24T15:58:17.212Z,15.58
2022-09-24T16:00:51.781Z,15.57
2022-09-24T16:03:32.610Z,15.60
2022-09-24T16:06:00.842Z,15.62
2022-09-24T16:08:37.613Z,15.62
2022-09-24T16:11:09.016Z,15.61
2022-09-24T16:13:41.965Z,15.62
2022-09-24T16:16:23.913Z,15.60
2022-09-24T16:18:52.945Z,15.58
2022-09-24T16:21:25.436Z,15.55
2022-09-24T16:24:02.744Z,15.52
2022-09-24T16:26:44.207Z,15.49
2022-09-24T16:29:22.695Z,15.48
2022-09-24T16:31:53.374Z,15.48
2022-09-24T16:34:25.208Z,15.48
2022-09-24T16:36:57.815Z,15.44
2022-09-24T16:39:32.415Z,15.43
2022-09-24T16:42:04.249Z,15.39
2022-09-24T16:44:48.027Z,15.38
2022-09-24T16:47:32.737Z,15.35
2022-09-24T16:50:20.718Z,15.31
2022-09-24T16:53:06.818Z,15.24
2022-09-24T16:55:40.396Z,15.22
2022-09-24T16:58:19.712Z,15.22
2022-09-24T17:00:54.966Z,15.23
2022-09-24T17:03:28.345Z,15.15
2022-09-24T17:06:19.471Z,15.12
2022-09-24T17:09:19.786Z,15.09
2022-09-24T17:12:09.342Z,15.05
2022-09-24T17:14:43.383Z,15.00
2022-09-24T17:17:49.204Z,14.96
2022-09-24T17:20:22.842Z,14.97
2022-09-24T17:22:59.125Z,14.92
2022-09-24T17:25:27.907Z,14.89
2022-09-24T17:28:01.364Z,14.83
2022-09-24T17:30:36.541Z,14.80
2022-09-24T17:33:38.722Z,14.77
2022-09-24T17:36:05.102Z,14.75
2022-09-24T17:38:40.870Z,14.75
2022-09-24T17:41:12.703Z,14.72
2022-09-24T17:43:52.521Z,14.67
2022-09-24T17:46:25.155Z,14.63
2022-09-24T17:48:57.446Z,14.57
2022-09-24T17:51:28.598Z,14.49
2022-09-24T17:54:05.183Z,14.49
2022-09-24T17:56:40.055Z,14.47
2022-09-24T17:59:14.623Z,14.48
2022-09-24T18:01:45.547Z,14.57
2022-09-24T18:04:17.919Z,14.58
2022-09-24T18:06:55.168Z,14.52
2022-09-24T18:09:28.975Z,14.47
2022-09-24T18:11:59.395Z,14.47
2022-09-24T18:14:50.980Z,14.47
2022-09-24T18:17:18.741Z,14.46
2022-09-24T18:19:56.012Z,14.45
2022-09-24T18:22:38.302Z,14.46
2022-09-24T18:25:10.910Z,14.47
2022-09-24T18:27:45.726Z,14.49
2022-09-24T18:30:18.570Z,14.51
2022-09-24T18:32:53.425Z,14.52
2022-09-24T18:35:26.103Z,14.55
2022-09-24T18:38:03.930Z,14.54
2022-09-24T18:40:38.035Z,14.55
2022-09-24T18:43:08.790Z,14.53
2022-09-24T18:45:39.998Z,14.56
2022-09-24T18:48:08.323Z,14.56
2022-09-24T18:50:45.527Z,14.56
2022-09-24T18:53:16.109Z,14.54
2022-09-24T18:55:51.147Z,14.55
2022-09-24T18:58:23.668Z,14.51
2022-09-24T19:00:59.016Z,14.47
2022-09-24T19:03:34.754Z,14.43
2022-09-24T19:06:07.227Z,14.41
2022-09-24T19:08:35.804Z,14.41
2022-09-24T19:11:10.944Z,14.41
2022-09-24T19:13:39.808Z,14.41
2022-09-24T19:16:19.544Z,14.36
2022-09-24T19:19:02.036Z,14.35
2022-09-24T19:21:37.232Z,14.35
2022-09-24T19:24:20.972Z,14.36
2022-09-24T19:26:53.446Z,14.37
2022-09-24T19:29:21.260Z,14.35
2022-09-24T19:31:57.027Z,14.33
2022-09-24T19:34:33.307Z,14.29
2022-09-24T19:37:05.808Z,14.25
2022-09-24T19:39:36.817Z,14.19
2022-09-24T19:42:09.316Z,14.19
2022-09-24T19:44:52.790Z,14.18
2022-09-24T19:47:27.571Z,14.17
2022-09-24T19:50:16.501Z,14.15
2022-09-24T19:52:49.884Z,14.15
2022-09-24T19:55:17.749Z,14.11
2022-09-24T19:57:50.814Z,14.09
2022-09-24T20:00:26.135Z,14.03
2022-09-24T20:02:59.702Z,14.02
2022-09-24T20:05:32.702Z,13.96
2022-09-24T20:14:18.541Z,13.94
2022-09-24T20:16:46.251Z,13.93
2022-09-24T20:19:14.172Z,13.94
2022-09-24T20:21:41.938Z,13.94
2022-09-24T20:24:12.384Z,13.90
2022-09-24T20:26:58.606Z,13.89
2022-09-24T20:29:26.547Z,13.89
2022-09-24T20:32:01.586Z,13.89
2022-09-24T20:34:34.574Z,13.87
2022-09-24T20:37:06.768Z,13.87
2022-09-24T20:39:34.761Z,13.88
2022-09-24T20:42:04.779Z,13.89
2022-09-24T20:44:33.238Z,13.90
2022-09-24T20:47:01.296Z,13.88
2022-09-24T20:49:29.316Z,13.87
2022-09-24T20:51:58.012Z,13.83
2022-09-24T20:54:26.983Z,13.81
2022-09-24T20:56:54.787Z,13.81
2022-09-24T20:59:22.580Z,13.79
2022-09-24T21:01:50.464Z,13.73
2022-09-24T21:04:20.984Z,13.70
2022-09-24T21:06:49.536Z,13.66
2022-09-24T21:09:18.284Z,13.65
2022-09-24T21:11:51.271Z,13.68
2022-09-24T21:14:19.710Z,13.66
2022-09-24T21:16:50.667Z,13.66
2022-09-24T21:19:18.476Z,13.67
2022-09-24T21:21:46.231Z,13.65
2022-09-24T21:24:15.639Z,13.66
2022-09-24T21:26:43.840Z,13.63
2022-09-24T21:29:17.625Z,13.60
2022-09-24T21:31:47.253Z,13.61
2022-09-24T21:34:17.082Z,13.65
2022-09-24T21:36:46.613Z,13.63
2022-09-24T21:39:24.042Z,13.62
2022-09-24T21:41:54.080Z,13.59
2022-09-24T21:44:22.682Z,13.56
2022-09-24T21:46:53.438Z,13.56
2022-09-24T21:49:21.250Z,13.53
2022-09-24T21:51:49.029Z,13.50
2022-09-24T21:54:18.292Z,13.43
2022-09-24T21:56:46.504Z,13.41
2022-09-24T21:59:33.763Z,13.39
2022-09-24T22:02:01.747Z,13.38
2022-09-24T22:04:29.954Z,13.37
2022-09-24T22:06:57.749Z,13.35
2022-09-24T22:09:26.647Z,13.30
2022-09-24T22:11:56.950Z,13.31
2022-09-24T22:14:24.792Z,13.30
2022-09-24T22:16:52.671Z,13.29
2022-09-24T22:19:20.604Z,13.27
2022-09-24T22:21:48.503Z,13.25
2022-09-24T22:24:18.993Z,13.21
2022-09-24T22:26:47.290Z,13.20
2022-09-24T22:29:17.233Z,13.19
2022-09-24T22:31:48.645Z,13.21
2022-09-24T22:34:34.811Z,13.18
2022-09-24T22:37:06.150Z,13.18
2022-09-24T22:39:35.060Z,13.12
2022-09-24T22:42:02.790Z,13.12
2022-09-24T22:44:30.591Z,13.11
2022-09-24T22:46:58.336Z,13.08
2022-09-24T22:49:26.904Z,13.06
2022-09-24T22:51:54.738Z,13.06
2022-09-24T22:54:24.173Z,13.06
2022-09-24T22:56:52.131Z,13.07
2022-09-24T22:59:20.308Z,13.04
2022-09-24T23:01:48.052Z,13.04
2022-09-24T23:04:16.134Z,13.03
2022-09-24T23:06:44.693Z,12.99
2022-09-24T23:09:12.515Z,12.97
2022-09-24T23:11:40.514Z,12.95
2022-09-24T23:14:12.234Z,12.94
2022-09-24T23:16:40.350Z,12.91
2022-09-24T23:19:14.847Z,12.90
2022-09-24T23:21:42.757Z,12.88
2022-09-24T23:24:15.360Z,12.83
2022-09-24T23:26:43.218Z,12.83
2022-09-24T23:29:11.136Z,12.83
2022-09-24T23:31:38.945Z,12.80
2022-09-24T23:34:08.653Z,12.79
2022-09-24T23:36:36.725Z,12.75
2022-09-24T23:39:04.870Z,12.74
2022-09-24T23:41:32.786Z,12.74
2022-09-24T23:44:00.872Z,12.71
2022-09-24T23:46:28.761Z,12.69
2022-09-24T23:48:56.844Z,12.65
2022-09-24T23:51:24.587Z,12.61
2022-09-24T23:53:52.615Z,12.54
2022-09-24T23:56:20.548Z,12.48
2022-09-24T23:58:48.606Z,12.47
